CAL119 RJFK-RCTP
Flight info
| Callsign | CAL119 |
|---|---|
| Flight time | 1h 46m |
| Altitude | 34000 |
| Route | HKC Y50 KOSHI A1 DRAKE DRAKE1A |
| Aircraft | B77W/H-SDE1E2E3FGHIJ2J3J4J5M1RWXY/LB1D1 |
Departure
| Time | 2026-05-08 13:16 |
|---|---|
| Airport | Kagoshima Airport (RJFK) |
Arrival
| Time | 2026-05-08 15:03 |
|---|---|
| Airport | Taiwan Taoyuan International Airport (RCTP) |
| Time | Latitude | Longitude | Altitude | Speed | Heading |
|---|---|---|---|---|---|
| 2026-05-08 12:33 | 31.80328 | 130.71558 | 905 ft | 0 kts | 241° |
| 2026-05-08 13:00 | 31.80331 | 130.71562 | 905 ft | 2 kts | 241° |
| 2026-05-08 13:00 | 31.80338 | 130.71578 | 905 ft | 2 kts | 240° |
| 2026-05-08 13:01 | 31.80345 | 130.71593 | 905 ft | 2 kts | 240° |
| 2026-05-08 13:01 | 31.80352 | 130.71608 | 905 ft | 2 kts | 240° |
| 2026-05-08 13:01 | 31.80360 | 130.71625 | 905 ft | 2 kts | 240° |
| 2026-05-08 13:01 | 31.80366 | 130.71639 | 905 ft | 0 kts | 240° |
| 2026-05-08 13:02 | 31.80372 | 130.71649 | 905 ft | 2 kts | 231° |
| 2026-05-08 13:02 | 31.80383 | 130.71660 | 905 ft | 2 kts | 206° |
| 2026-05-08 13:02 | 31.80397 | 130.71666 | 905 ft | 2 kts | 187° |
| 2026-05-08 13:02 | 31.80412 | 130.71666 | 905 ft | 2 kts | 168° |
| 2026-05-08 13:03 | 31.80423 | 130.71661 | 905 ft | 0 kts | 151° |
| 2026-05-08 13:03 | 31.80427 | 130.71658 | 905 ft | 0 kts | 150° |
| 2026-05-08 13:06 | 31.80423 | 130.71661 | 905 ft | 1 kts | 153° |
| 2026-05-08 13:06 | 31.80400 | 130.71675 | 905 ft | 5 kts | 152° |
| 2026-05-08 13:07 | 31.80359 | 130.71701 | 905 ft | 8 kts | 150° |
| 2026-05-08 13:07 | 31.80299 | 130.71742 | 904 ft | 11 kts | 150° |
| 2026-05-08 13:07 | 31.80221 | 130.71796 | 903 ft | 14 kts | 150° |
| 2026-05-08 13:07 | 31.80127 | 130.71860 | 901 ft | 15 kts | 150° |
| 2026-05-08 13:08 | 31.80054 | 130.71909 | 900 ft | 12 kts | 150° |
| 2026-05-08 13:08 | 31.79972 | 130.71964 | 898 ft | 15 kts | 150° |
| 2026-05-08 13:08 | 31.79875 | 130.72028 | 896 ft | 16 kts | 150° |
| 2026-05-08 13:08 | 31.79776 | 130.72095 | 893 ft | 13 kts | 150° |
| 2026-05-08 13:09 | 31.79692 | 130.72153 | 891 ft | 14 kts | 149° |
| 2026-05-08 13:09 | 31.79602 | 130.72214 | 889 ft | 15 kts | 150° |
| 2026-05-08 13:09 | 31.79507 | 130.72278 | 886 ft | 16 kts | 150° |
| 2026-05-08 13:09 | 31.79390 | 130.72356 | 883 ft | 21 kts | 150° |
| 2026-05-08 13:10 | 31.79258 | 130.72446 | 879 ft | 22 kts | 150° |
| 2026-05-08 13:10 | 31.79149 | 130.72519 | 876 ft | 7 kts | 150° |
| 2026-05-08 13:10 | 31.79115 | 130.72557 | 875 ft | 7 kts | 113° |
| 2026-05-08 13:10 | 31.79118 | 130.72612 | 874 ft | 5 kts | 67° |
| 2026-05-08 13:11 | 31.79121 | 130.72618 | 874 ft | 0 kts | 63° |
| 2026-05-08 13:14 | 31.79131 | 130.72639 | 874 ft | 7 kts | 59° |
| 2026-05-08 13:15 | 31.79159 | 130.72693 | 874 ft | 6 kts | 58° |
| 2026-05-08 13:15 | 31.79190 | 130.72711 | 874 ft | 5 kts | 348° |
| 2026-05-08 13:15 | 31.79228 | 130.72691 | 875 ft | 6 kts | 329° |
| 2026-05-08 13:15 | 31.79337 | 130.72617 | 877 ft | 37 kts | 330° |
| 2026-05-08 13:16 | 31.79757 | 130.72333 | 889 ft | 100 kts | 330° |
| 2026-05-08 13:16 | 31.80537 | 130.71806 | 908 ft | 153 kts | 329° |
| 2026-05-08 13:16 | 31.81492 | 130.71173 | 1435 ft | 158 kts | 330° |
| 2026-05-08 13:16 | 31.82486 | 130.70532 | 2029 ft | 170 kts | 330° |
| 2026-05-08 13:17 | 31.83502 | 130.69859 | 2762 ft | 173 kts | 329° |
| 2026-05-08 13:17 | 31.84560 | 130.69153 | 3452 ft | 177 kts | 329° |
| 2026-05-08 13:17 | 31.85544 | 130.68297 | 4112 ft | 181 kts | 310° |
| 2026-05-08 13:17 | 31.86176 | 130.66939 | 4548 ft | 201 kts | 289° |
| 2026-05-08 13:18 | 31.86300 | 130.65256 | 5055 ft | 222 kts | 264° |
| 2026-05-08 13:18 | 31.85724 | 130.63509 | 5640 ft | 244 kts | 237° |
| 2026-05-08 13:18 | 31.84375 | 130.62161 | 6156 ft | 270 kts | 206° |
| 2026-05-08 13:18 | 31.82506 | 130.61511 | 6811 ft | 288 kts | 196° |
| 2026-05-08 13:19 | 31.80561 | 130.61009 | 7692 ft | 294 kts | 195° |
| 2026-05-08 13:19 | 31.78534 | 130.60500 | 8577 ft | 300 kts | 195° |
| 2026-05-08 13:19 | 31.76523 | 130.59996 | 9537 ft | 301 kts | 194° |
| 2026-05-08 13:19 | 31.74476 | 130.59483 | 10492 ft | 304 kts | 194° |
| 2026-05-08 13:20 | 31.72381 | 130.58940 | 11122 ft | 318 kts | 197° |
| 2026-05-08 13:20 | 31.70298 | 130.57925 | 11745 ft | 333 kts | 211° |
| 2026-05-08 13:20 | 31.68418 | 130.56239 | 12291 ft | 348 kts | 227° |
| 2026-05-08 13:20 | 31.66841 | 130.54019 | 12852 ft | 362 kts | 234° |
| 2026-05-08 13:21 | 31.65301 | 130.51637 | 13539 ft | 374 kts | 236° |
| 2026-05-08 13:21 | 31.63736 | 130.49226 | 14605 ft | 374 kts | 236° |
| 2026-05-08 13:21 | 31.62168 | 130.46826 | 15900 ft | 368 kts | 237° |
| 2026-05-08 13:21 | 31.60620 | 130.44461 | 16835 ft | 370 kts | 237° |
| 2026-05-08 13:22 | 31.59046 | 130.42061 | 17647 ft | 375 kts | 237° |
| 2026-05-08 13:22 | 31.57455 | 130.39641 | 18555 ft | 376 kts | 237° |
| 2026-05-08 13:22 | 31.55882 | 130.37253 | 19467 ft | 376 kts | 237° |
| 2026-05-08 13:22 | 31.54281 | 130.34822 | 20294 ft | 378 kts | 236° |
| 2026-05-08 13:23 | 31.52673 | 130.32385 | 21103 ft | 381 kts | 236° |
| 2026-05-08 13:23 | 31.51059 | 130.29942 | 21902 ft | 382 kts | 236° |
| 2026-05-08 13:23 | 31.49432 | 130.27480 | 22678 ft | 383 kts | 236° |
| 2026-05-08 13:23 | 31.47808 | 130.25021 | 23498 ft | 384 kts | 236° |
| 2026-05-08 13:24 | 31.46172 | 130.22549 | 24179 ft | 388 kts | 236° |
| 2026-05-08 13:24 | 31.44518 | 130.20050 | 24818 ft | 393 kts | 236° |
| 2026-05-08 13:24 | 31.42817 | 130.17484 | 25534 ft | 397 kts | 236° |
| 2026-05-08 13:24 | 31.41138 | 130.14952 | 26233 ft | 400 kts | 236° |
| 2026-05-08 13:25 | 31.39425 | 130.12369 | 26874 ft | 404 kts | 236° |
| 2026-05-08 13:25 | 31.37675 | 130.09732 | 27446 ft | 410 kts | 236° |
| 2026-05-08 13:25 | 31.35928 | 130.07101 | 27988 ft | 416 kts | 235° |
| 2026-05-08 13:25 | 31.34150 | 130.04427 | 28612 ft | 419 kts | 236° |
| 2026-05-08 13:26 | 31.32360 | 130.01737 | 29206 ft | 423 kts | 236° |
| 2026-05-08 13:26 | 31.30533 | 129.98993 | 29837 ft | 427 kts | 236° |
| 2026-05-08 13:26 | 31.28707 | 129.96252 | 30744 ft | 423 kts | 236° |
| 2026-05-08 13:26 | 31.26946 | 129.93617 | 31863 ft | 414 kts | 236° |
| 2026-05-08 13:27 | 31.25204 | 129.91008 | 32891 ft | 405 kts | 236° |
| 2026-05-08 13:27 | 31.23484 | 129.88431 | 33648 ft | 401 kts | 236° |
| 2026-05-08 13:27 | 31.21761 | 129.85852 | 34035 ft | 404 kts | 236° |
| 2026-05-08 13:27 | 31.20047 | 129.83284 | 34072 ft | 405 kts | 236° |
| 2026-05-08 13:28 | 31.16583 | 129.78108 | 34064 ft | 402 kts | 236° |
| 2026-05-08 13:28 | 31.13082 | 129.72881 | 34071 ft | 405 kts | 236° |
| 2026-05-08 13:29 | 31.09553 | 129.67622 | 34068 ft | 403 kts | 237° |
| 2026-05-08 13:29 | 31.06107 | 129.62492 | 34068 ft | 403 kts | 236° |
| 2026-05-08 13:30 | 31.02643 | 129.57344 | 34063 ft | 402 kts | 236° |
| 2026-05-08 13:30 | 30.99152 | 129.52161 | 34065 ft | 404 kts | 237° |
| 2026-05-08 13:31 | 30.95707 | 129.47054 | 34067 ft | 401 kts | 237° |
| 2026-05-08 13:31 | 30.92230 | 129.41904 | 34067 ft | 403 kts | 236° |
| 2026-05-08 13:32 | 30.88764 | 129.36780 | 34068 ft | 403 kts | 237° |
| 2026-05-08 13:32 | 30.85264 | 129.31610 | 34091 ft | 405 kts | 237° |
| 2026-05-08 13:33 | 30.81760 | 129.26442 | 34090 ft | 405 kts | 236° |
| 2026-05-08 13:33 | 30.78288 | 129.21327 | 34092 ft | 406 kts | 237° |
| 2026-05-08 13:34 | 30.74832 | 129.16132 | 34089 ft | 405 kts | 238° |
| 2026-05-08 13:34 | 30.71415 | 129.10913 | 34088 ft | 406 kts | 237° |
| 2026-05-08 13:35 | 30.67993 | 129.05699 | 34091 ft | 406 kts | 237° |
| 2026-05-08 13:35 | 30.64597 | 129.00540 | 34091 ft | 404 kts | 238° |
| 2026-05-08 13:36 | 30.61155 | 128.95314 | 34088 ft | 407 kts | 237° |
| 2026-05-08 13:36 | 30.57729 | 128.90124 | 34088 ft | 406 kts | 237° |
| 2026-05-08 13:37 | 30.54283 | 128.84909 | 34093 ft | 406 kts | 237° |
| 2026-05-08 13:37 | 30.50852 | 128.79724 | 34089 ft | 406 kts | 237° |
| 2026-05-08 13:38 | 30.47417 | 128.74541 | 34085 ft | 409 kts | 237° |
| 2026-05-08 13:38 | 30.43933 | 128.69290 | 34088 ft | 408 kts | 237° |
| 2026-05-08 13:39 | 30.40496 | 128.64116 | 34087 ft | 408 kts | 237° |
| 2026-05-08 13:39 | 30.37020 | 128.58891 | 34085 ft | 408 kts | 238° |
| 2026-05-08 13:40 | 30.33562 | 128.53700 | 34083 ft | 409 kts | 237° |
| 2026-05-08 13:40 | 30.30095 | 128.48503 | 34081 ft | 407 kts | 237° |
| 2026-05-08 13:41 | 30.26634 | 128.43321 | 34081 ft | 407 kts | 238° |
| 2026-05-08 13:41 | 30.23172 | 128.38142 | 34076 ft | 408 kts | 238° |
| 2026-05-08 13:42 | 30.19675 | 128.32921 | 34096 ft | 408 kts | 237° |
| 2026-05-08 13:42 | 30.16212 | 128.27756 | 34095 ft | 409 kts | 237° |
| 2026-05-08 13:43 | 30.12717 | 128.22551 | 34096 ft | 409 kts | 237° |
| 2026-05-08 13:43 | 30.09226 | 128.17357 | 34094 ft | 408 kts | 237° |
| 2026-05-08 13:44 | 30.05738 | 128.12174 | 34091 ft | 408 kts | 237° |
| 2026-05-08 13:44 | 30.02276 | 128.07037 | 34094 ft | 407 kts | 237° |
| 2026-05-08 13:45 | 29.98757 | 128.01820 | 34088 ft | 410 kts | 238° |
| 2026-05-08 13:45 | 29.95271 | 127.96662 | 34091 ft | 409 kts | 237° |
| 2026-05-08 13:46 | 29.91777 | 127.91497 | 34093 ft | 409 kts | 238° |
| 2026-05-08 13:46 | 29.88298 | 127.86362 | 34092 ft | 408 kts | 237° |
| 2026-05-08 13:47 | 29.84745 | 127.81256 | 34096 ft | 412 kts | 235° |
| 2026-05-08 13:47 | 29.81013 | 127.76283 | 34094 ft | 412 kts | 236° |
| 2026-05-08 13:48 | 29.77274 | 127.71287 | 34095 ft | 413 kts | 236° |
| 2026-05-08 13:48 | 29.73517 | 127.66263 | 34096 ft | 411 kts | 236° |
| 2026-05-08 13:49 | 29.69761 | 127.61238 | 34096 ft | 413 kts | 236° |
| 2026-05-08 13:49 | 29.66011 | 127.56226 | 34099 ft | 411 kts | 236° |
| 2026-05-08 13:50 | 29.62266 | 127.51224 | 34101 ft | 414 kts | 236° |
| 2026-05-08 13:50 | 29.58497 | 127.46197 | 34101 ft | 413 kts | 236° |
| 2026-05-08 13:51 | 29.54885 | 127.41002 | 34101 ft | 414 kts | 238° |
| 2026-05-08 13:51 | 29.51311 | 127.35796 | 34102 ft | 412 kts | 238° |
| 2026-05-08 13:52 | 29.47706 | 127.30563 | 34124 ft | 413 kts | 237° |
| 2026-05-08 13:52 | 29.44130 | 127.25391 | 34126 ft | 416 kts | 237° |
| 2026-05-08 13:53 | 29.40522 | 127.20184 | 34115 ft | 414 kts | 237° |
| 2026-05-08 13:53 | 29.36930 | 127.15009 | 34116 ft | 415 kts | 237° |
| 2026-05-08 13:54 | 29.33325 | 127.09821 | 34112 ft | 414 kts | 237° |
| 2026-05-08 13:54 | 29.29713 | 127.04630 | 34125 ft | 416 kts | 237° |
| 2026-05-08 13:55 | 29.26093 | 126.99435 | 34129 ft | 416 kts | 237° |
| 2026-05-08 13:56 | 29.20705 | 126.91717 | 34129 ft | 415 kts | 237° |
| 2026-05-08 13:56 | 29.17075 | 126.86522 | 34129 ft | 418 kts | 237° |
| 2026-05-08 13:57 | 29.13454 | 126.81348 | 34129 ft | 418 kts | 237° |
| 2026-05-08 13:57 | 29.09782 | 126.76109 | 34123 ft | 417 kts | 237° |
| 2026-05-08 13:58 | 29.06145 | 126.70924 | 34116 ft | 420 kts | 237° |
| 2026-05-08 13:58 | 29.02492 | 126.65726 | 34115 ft | 418 kts | 237° |
| 2026-05-08 13:59 | 28.98803 | 126.60478 | 34121 ft | 423 kts | 237° |
| 2026-05-08 13:59 | 28.95093 | 126.55296 | 34119 ft | 420 kts | 236° |
| 2026-05-08 14:00 | 28.91292 | 126.50182 | 34121 ft | 427 kts | 236° |
| 2026-05-08 14:00 | 28.87469 | 126.45041 | 34116 ft | 423 kts | 236° |
| 2026-05-08 14:01 | 28.83675 | 126.39935 | 34115 ft | 426 kts | 236° |
| 2026-05-08 14:01 | 28.79838 | 126.34776 | 34113 ft | 427 kts | 236° |
| 2026-05-08 14:02 | 28.75993 | 126.29612 | 34124 ft | 426 kts | 236° |
| 2026-05-08 14:02 | 28.72161 | 126.24470 | 34124 ft | 427 kts | 236° |
| 2026-05-08 14:03 | 28.68305 | 126.19301 | 34120 ft | 425 kts | 236° |
| 2026-05-08 14:03 | 28.64432 | 126.14116 | 34123 ft | 429 kts | 236° |
| 2026-05-08 14:04 | 28.60666 | 126.08899 | 34122 ft | 428 kts | 238° |
| 2026-05-08 14:04 | 28.56925 | 126.03596 | 34117 ft | 427 kts | 237° |
| 2026-05-08 14:05 | 28.53177 | 125.98300 | 34120 ft | 428 kts | 237° |
| 2026-05-08 14:05 | 28.49458 | 125.93059 | 34120 ft | 429 kts | 238° |
| 2026-05-08 14:06 | 28.45693 | 125.87762 | 34112 ft | 428 kts | 238° |
| 2026-05-08 14:06 | 28.41967 | 125.82528 | 34120 ft | 430 kts | 238° |
| 2026-05-08 14:07 | 28.38193 | 125.77235 | 34112 ft | 428 kts | 237° |
| 2026-05-08 14:07 | 28.34435 | 125.71971 | 34110 ft | 428 kts | 238° |
| 2026-05-08 14:08 | 28.30679 | 125.66716 | 34111 ft | 429 kts | 237° |
| 2026-05-08 14:08 | 28.26932 | 125.61481 | 34110 ft | 427 kts | 238° |
| 2026-05-08 14:09 | 28.23173 | 125.56234 | 34108 ft | 428 kts | 238° |
| 2026-05-08 14:09 | 28.19428 | 125.51015 | 34119 ft | 427 kts | 238° |
| 2026-05-08 14:10 | 28.15669 | 125.45782 | 34121 ft | 427 kts | 238° |
| 2026-05-08 14:10 | 28.11930 | 125.40583 | 34109 ft | 428 kts | 238° |
| 2026-05-08 14:11 | 28.08186 | 125.35384 | 34107 ft | 426 kts | 238° |
| 2026-05-08 14:11 | 28.04380 | 125.30105 | 34131 ft | 429 kts | 237° |
| 2026-05-08 14:12 | 28.00609 | 125.24882 | 34132 ft | 429 kts | 238° |
| 2026-05-08 14:12 | 27.96830 | 125.19654 | 34121 ft | 427 kts | 238° |
| 2026-05-08 14:13 | 27.93026 | 125.14394 | 34136 ft | 430 kts | 238° |
| 2026-05-08 14:13 | 27.89240 | 125.09170 | 34128 ft | 429 kts | 238° |
| 2026-05-08 14:14 | 27.85454 | 125.03953 | 34126 ft | 428 kts | 238° |
| 2026-05-08 14:14 | 27.81673 | 124.98745 | 34128 ft | 428 kts | 237° |
| 2026-05-08 14:15 | 27.77845 | 124.93482 | 34118 ft | 428 kts | 238° |
| 2026-05-08 14:15 | 27.74044 | 124.88260 | 34119 ft | 430 kts | 238° |
| 2026-05-08 14:16 | 27.70222 | 124.83018 | 34114 ft | 430 kts | 238° |
| 2026-05-08 14:16 | 27.66410 | 124.77795 | 34117 ft | 429 kts | 237° |
| 2026-05-08 14:17 | 27.62630 | 124.72623 | 34113 ft | 430 kts | 238° |
| 2026-05-08 14:17 | 27.58785 | 124.67361 | 34108 ft | 429 kts | 237° |
| 2026-05-08 14:18 | 27.54971 | 124.62145 | 34111 ft | 430 kts | 238° |
| 2026-05-08 14:18 | 27.51150 | 124.56928 | 34104 ft | 428 kts | 238° |
| 2026-05-08 14:19 | 27.47350 | 124.51744 | 34103 ft | 429 kts | 238° |
| 2026-05-08 14:19 | 27.43541 | 124.46554 | 34102 ft | 430 kts | 238° |
| 2026-05-08 14:20 | 27.39709 | 124.41339 | 34100 ft | 428 kts | 238° |
| 2026-05-08 14:20 | 27.35897 | 124.36158 | 34103 ft | 429 kts | 237° |
| 2026-05-08 14:21 | 27.32086 | 124.30985 | 34117 ft | 429 kts | 237° |
| 2026-05-08 14:21 | 27.28267 | 124.25806 | 34107 ft | 429 kts | 237° |
| 2026-05-08 14:22 | 27.24455 | 124.20644 | 34115 ft | 429 kts | 237° |
| 2026-05-08 14:22 | 27.20626 | 124.15465 | 34102 ft | 429 kts | 237° |
| 2026-05-08 14:23 | 27.16817 | 124.10319 | 34101 ft | 429 kts | 237° |
| 2026-05-08 14:23 | 27.12995 | 124.05160 | 34107 ft | 428 kts | 237° |
| 2026-05-08 14:24 | 27.09178 | 124.00015 | 34104 ft | 431 kts | 237° |
| 2026-05-08 14:24 | 27.05328 | 123.94886 | 34092 ft | 429 kts | 237° |
| 2026-05-08 14:25 | 27.01469 | 123.89762 | 34097 ft | 430 kts | 237° |
| 2026-05-08 14:25 | 26.97595 | 123.84624 | 34096 ft | 429 kts | 237° |
| 2026-05-08 14:26 | 26.93737 | 123.79511 | 34095 ft | 431 kts | 237° |
| 2026-05-08 14:26 | 26.89851 | 123.74366 | 34094 ft | 431 kts | 237° |
| 2026-05-08 14:27 | 26.85980 | 123.69247 | 34087 ft | 433 kts | 237° |
| 2026-05-08 14:27 | 26.82076 | 123.64089 | 34090 ft | 434 kts | 237° |
| 2026-05-08 14:28 | 26.78195 | 123.58970 | 34091 ft | 432 kts | 237° |
| 2026-05-08 14:28 | 26.74292 | 123.53826 | 34080 ft | 434 kts | 237° |
| 2026-05-08 14:29 | 26.70381 | 123.48678 | 34083 ft | 434 kts | 237° |
| 2026-05-08 14:29 | 26.66473 | 123.43540 | 34086 ft | 435 kts | 237° |
| 2026-05-08 14:30 | 26.62556 | 123.38397 | 34081 ft | 436 kts | 237° |
| 2026-05-08 14:30 | 26.58654 | 123.33280 | 34100 ft | 436 kts | 236° |
| 2026-05-08 14:31 | 26.54713 | 123.28118 | 34105 ft | 435 kts | 237° |
| 2026-05-08 14:31 | 26.50786 | 123.22980 | 34103 ft | 436 kts | 236° |
| 2026-05-08 14:32 | 26.44859 | 123.15236 | 34092 ft | 437 kts | 237° |
| 2026-05-08 14:32 | 26.40921 | 123.10100 | 34092 ft | 436 kts | 236° |
| 2026-05-08 14:33 | 26.36968 | 123.04948 | 34086 ft | 436 kts | 236° |
| 2026-05-08 14:33 | 26.33036 | 122.99830 | 34090 ft | 437 kts | 236° |
| 2026-05-08 14:34 | 26.29073 | 122.94679 | 34089 ft | 437 kts | 236° |
| 2026-05-08 14:34 | 26.25103 | 122.89527 | 34084 ft | 438 kts | 237° |
| 2026-05-08 14:35 | 26.21123 | 122.84367 | 34087 ft | 439 kts | 237° |
| 2026-05-08 14:35 | 26.17168 | 122.79245 | 34082 ft | 438 kts | 236° |
| 2026-05-08 14:36 | 26.13162 | 122.74064 | 34080 ft | 437 kts | 237° |
| 2026-05-08 14:36 | 26.09176 | 122.68913 | 34082 ft | 438 kts | 236° |
| 2026-05-08 14:37 | 26.05206 | 122.63789 | 34080 ft | 438 kts | 236° |
| 2026-05-08 14:37 | 26.01216 | 122.58645 | 34078 ft | 440 kts | 236° |
| 2026-05-08 14:38 | 25.97223 | 122.53503 | 34080 ft | 439 kts | 237° |
| 2026-05-08 14:38 | 25.93260 | 122.48408 | 33719 ft | 434 kts | 236° |
| 2026-05-08 14:39 | 25.91278 | 122.45861 | 33138 ft | 430 kts | 237° |
| 2026-05-08 14:39 | 25.89332 | 122.43363 | 32680 ft | 423 kts | 237° |
| 2026-05-08 14:39 | 25.87427 | 122.40917 | 32183 ft | 419 kts | 236° |
| 2026-05-08 14:39 | 25.85514 | 122.38459 | 31533 ft | 419 kts | 236° |
| 2026-05-08 14:40 | 25.83632 | 122.36042 | 30878 ft | 418 kts | 236° |
| 2026-05-08 14:40 | 25.81736 | 122.33611 | 30326 ft | 416 kts | 235° |
| 2026-05-08 14:40 | 25.79849 | 122.31192 | 29889 ft | 411 kts | 235° |
| 2026-05-08 14:40 | 25.77984 | 122.28804 | 29448 ft | 406 kts | 235° |
| 2026-05-08 14:41 | 25.76154 | 122.26460 | 28951 ft | 403 kts | 234° |
| 2026-05-08 14:41 | 25.74317 | 122.24109 | 28429 ft | 401 kts | 234° |
| 2026-05-08 14:41 | 25.72498 | 122.21782 | 27938 ft | 397 kts | 234° |
| 2026-05-08 14:41 | 25.70694 | 122.19476 | 27430 ft | 395 kts | 234° |
| 2026-05-08 14:42 | 25.68918 | 122.17206 | 26935 ft | 392 kts | 234° |
| 2026-05-08 14:42 | 25.67130 | 122.14922 | 26438 ft | 389 kts | 234° |
| 2026-05-08 14:42 | 25.65352 | 122.12652 | 25933 ft | 387 kts | 233° |
| 2026-05-08 14:42 | 25.63613 | 122.10431 | 25430 ft | 384 kts | 234° |
| 2026-05-08 14:43 | 25.62085 | 122.08025 | 24905 ft | 377 kts | 244° |
| 2026-05-08 14:43 | 25.61051 | 122.05399 | 24417 ft | 371 kts | 254° |
| 2026-05-08 14:43 | 25.60243 | 122.02703 | 23914 ft | 369 kts | 251° |
| 2026-05-08 14:43 | 25.59313 | 122.00069 | 23429 ft | 367 kts | 250° |
| 2026-05-08 14:44 | 25.58369 | 121.97430 | 22948 ft | 365 kts | 250° |
| 2026-05-08 14:44 | 25.57441 | 121.94841 | 22453 ft | 364 kts | 250° |
| 2026-05-08 14:44 | 25.56508 | 121.92239 | 21988 ft | 362 kts | 250° |
| 2026-05-08 14:44 | 25.55583 | 121.89661 | 21554 ft | 359 kts | 250° |
| 2026-05-08 14:45 | 25.54664 | 121.87101 | 21111 ft | 357 kts | 250° |
| 2026-05-08 14:45 | 25.53746 | 121.84548 | 20661 ft | 355 kts | 250° |
| 2026-05-08 14:45 | 25.52839 | 121.82024 | 20205 ft | 353 kts | 250° |
| 2026-05-08 14:45 | 25.51934 | 121.79507 | 19748 ft | 351 kts | 250° |
| 2026-05-08 14:46 | 25.51035 | 121.77012 | 19324 ft | 349 kts | 250° |
| 2026-05-08 14:46 | 25.50142 | 121.74528 | 18883 ft | 347 kts | 250° |
| 2026-05-08 14:46 | 25.49251 | 121.72057 | 18425 ft | 345 kts | 250° |
| 2026-05-08 14:46 | 25.48366 | 121.69602 | 17978 ft | 343 kts | 250° |
| 2026-05-08 14:47 | 25.47484 | 121.67158 | 17538 ft | 341 kts | 250° |
| 2026-05-08 14:47 | 25.46607 | 121.64728 | 17079 ft | 340 kts | 250° |
| 2026-05-08 14:47 | 25.45725 | 121.62290 | 16568 ft | 339 kts | 250° |
| 2026-05-08 14:47 | 25.44861 | 121.59898 | 16065 ft | 337 kts | 250° |
| 2026-05-08 14:48 | 25.43996 | 121.57507 | 15545 ft | 336 kts | 250° |
| 2026-05-08 14:48 | 25.43128 | 121.55108 | 15045 ft | 333 kts | 249° |
| 2026-05-08 14:48 | 25.42270 | 121.52738 | 14488 ft | 332 kts | 250° |
| 2026-05-08 14:48 | 25.41414 | 121.50374 | 13937 ft | 331 kts | 249° |
| 2026-05-08 14:49 | 25.40568 | 121.48041 | 13420 ft | 329 kts | 249° |
| 2026-05-08 14:49 | 25.39468 | 121.45811 | 12915 ft | 329 kts | 235° |
| 2026-05-08 14:49 | 25.38047 | 121.43873 | 12467 ft | 327 kts | 231° |
| 2026-05-08 14:49 | 25.36547 | 121.41961 | 12001 ft | 326 kts | 230° |
| 2026-05-08 14:50 | 25.35071 | 121.40089 | 11551 ft | 324 kts | 230° |
| 2026-05-08 14:50 | 25.33582 | 121.38194 | 11112 ft | 321 kts | 230° |
| 2026-05-08 14:50 | 25.32156 | 121.36378 | 10953 ft | 309 kts | 230° |
| 2026-05-08 14:50 | 25.30774 | 121.34615 | 10913 ft | 293 kts | 230° |
| 2026-05-08 14:51 | 25.29455 | 121.32935 | 10878 ft | 278 kts | 230° |
| 2026-05-08 14:51 | 25.28215 | 121.31354 | 10704 ft | 271 kts | 230° |
| 2026-05-08 14:51 | 25.26982 | 121.29782 | 10311 ft | 271 kts | 230° |
| 2026-05-08 14:51 | 25.25746 | 121.28206 | 9950 ft | 271 kts | 230° |
| 2026-05-08 14:52 | 25.24516 | 121.26640 | 9612 ft | 269 kts | 230° |
| 2026-05-08 14:52 | 25.22066 | 121.23520 | 8919 ft | 267 kts | 230° |
| 2026-05-08 14:52 | 25.20852 | 121.21975 | 8577 ft | 266 kts | 229° |
| 2026-05-08 14:53 | 25.19649 | 121.20446 | 8271 ft | 263 kts | 229° |
| 2026-05-08 14:53 | 25.18449 | 121.18919 | 7979 ft | 263 kts | 229° |
| 2026-05-08 14:53 | 25.17235 | 121.17379 | 7654 ft | 265 kts | 229° |
| 2026-05-08 14:53 | 25.16042 | 121.15861 | 7325 ft | 264 kts | 229° |
| 2026-05-08 14:54 | 25.14833 | 121.14326 | 6974 ft | 263 kts | 229° |
| 2026-05-08 14:54 | 25.13634 | 121.12802 | 6594 ft | 262 kts | 229° |
| 2026-05-08 14:54 | 25.12431 | 121.11277 | 6215 ft | 260 kts | 229° |
| 2026-05-08 14:54 | 25.11254 | 121.09782 | 5832 ft | 259 kts | 229° |
| 2026-05-08 14:55 | 25.10084 | 121.08295 | 5440 ft | 257 kts | 229° |
| 2026-05-08 14:55 | 25.08908 | 121.06801 | 4985 ft | 258 kts | 229° |
| 2026-05-08 14:55 | 25.07733 | 121.05306 | 4565 ft | 258 kts | 229° |
| 2026-05-08 14:55 | 25.06545 | 121.03799 | 4170 ft | 259 kts | 229° |
| 2026-05-08 14:56 | 25.05375 | 121.02321 | 3987 ft | 252 kts | 225° |
| 2026-05-08 14:56 | 25.03967 | 121.01289 | 3972 ft | 233 kts | 196° |
| 2026-05-08 14:56 | 25.02422 | 121.01103 | 3822 ft | 221 kts | 171° |
| 2026-05-08 14:56 | 25.00996 | 121.01628 | 3543 ft | 215 kts | 148° |
| 2026-05-08 14:57 | 24.99740 | 121.02544 | 3236 ft | 213 kts | 139° |
| 2026-05-08 14:57 | 24.98596 | 121.03573 | 2986 ft | 211 kts | 134° |
| 2026-05-08 14:57 | 24.97533 | 121.04646 | 2753 ft | 208 kts | 132° |
| 2026-05-08 14:57 | 24.96718 | 121.05861 | 2661 ft | 186 kts | 104° |
| 2026-05-08 14:58 | 24.96562 | 121.07212 | 2524 ft | 174 kts | 92° |
| 2026-05-08 14:58 | 24.96207 | 121.08511 | 2510 ft | 179 kts | 100° |
| 2026-05-08 14:58 | 24.96237 | 121.09831 | 2486 ft | 171 kts | 64° |
| 2026-05-08 14:58 | 24.97036 | 121.10748 | 2482 ft | 170 kts | 26° |
| 2026-05-08 14:59 | 24.98162 | 121.11163 | 2499 ft | 171 kts | 19° |
| 2026-05-08 14:59 | 25.00092 | 121.12470 | 2218 ft | 157 kts | 50° |
| 2026-05-08 14:59 | 25.00750 | 121.13360 | 2025 ft | 145 kts | 49° |
| 2026-05-08 15:00 | 25.01422 | 121.14201 | 1850 ft | 146 kts | 48° |
| 2026-05-08 15:00 | 25.02086 | 121.15038 | 1660 ft | 143 kts | 48° |
| 2026-05-08 15:00 | 25.02734 | 121.15857 | 1472 ft | 140 kts | 48° |
| 2026-05-08 15:00 | 25.03365 | 121.16656 | 1299 ft | 139 kts | 48° |
| 2026-05-08 15:01 | 25.03999 | 121.17455 | 1119 ft | 138 kts | 48° |
| 2026-05-08 15:01 | 25.04636 | 121.18254 | 928 ft | 138 kts | 47° |
| 2026-05-08 15:01 | 25.05275 | 121.19041 | 727 ft | 136 kts | 47° |
| 2026-05-08 15:01 | 25.05888 | 121.19822 | 545 ft | 134 kts | 48° |
| 2026-05-08 15:02 | 25.06505 | 121.20601 | 386 ft | 134 kts | 47° |
| 2026-05-08 15:02 | 25.07123 | 121.21388 | 205 ft | 135 kts | 47° |
| 2026-05-08 15:02 | 25.07719 | 121.22141 | 122 ft | 117 kts | 49° |
| 2026-05-08 15:02 | 25.08130 | 121.22667 | 122 ft | 63 kts | 49° |
| 2026-05-08 15:03 | 25.08337 | 121.22932 | 122 ft | 29 kts | 51° |
| 2026-05-08 15:03 | 25.08414 | 121.23083 | 122 ft | 18 kts | 71° |
| 2026-05-08 15:03 | 25.08440 | 121.23199 | 122 ft | 15 kts | 79° |
| 2026-05-08 15:03 | 25.08460 | 121.23317 | 122 ft | 15 kts | 78° |
| 2026-05-08 15:04 | 25.08473 | 121.23389 | 122 ft | 0 kts | 78° |
| 2026-05-08 15:04 | 25.08476 | 121.23400 | 122 ft | 3 kts | 78° |
| 2026-05-08 15:04 | 25.08473 | 121.23441 | 122 ft | 5 kts | 115° |
| 2026-05-08 15:05 | 25.08436 | 121.23479 | 122 ft | 9 kts | 152° |
| 2026-05-08 15:05 | 25.08380 | 121.23515 | 122 ft | 9 kts | 144° |
| 2026-05-08 15:05 | 25.08336 | 121.23554 | 122 ft | 4 kts | 139° |
| 2026-05-08 15:05 | 25.08312 | 121.23577 | 122 ft | 4 kts | 138° |
| 2026-05-08 15:06 | 25.08302 | 121.23587 | 122 ft | 0 kts | 138° |